ADDS METAR Data INFO
IDs: Format: Raw Decoded Include TAF

Data at: 0933 UTC 11 Dec 2017

KAXV 110915Z AUTO 00000KT 10SM OVC028 M01/M03 A3006 RMK AO2
KAXV 110855Z AUTO 00000KT 10SM OVC028 00/M03 A3006 RMK AO2
KAXV 110835Z AUTO 27003KT 10SM OVC028 00/M03 A3006 RMK AO2
KAXV 110815Z AUTO 26003KT 10SM OVC028 00/M03 A3005 RMK AO2
KAXV 110755Z AUTO 30003KT 10SM OVC028 00/M03 A3005 RMK AO2
KAXV 110735Z AUTO 30003KT 10SM OVC026 00/M03 A3005 RMK AO2
KAXV 110715Z AUTO 31006KT 10SM OVC026 00/M03 A3005 RMK AO2
KAXV 110655Z AUTO 31004KT 10SM OVC024 00/M03 A3005 RMK AO2
KAXV 110635Z AUTO 31007KT 10SM OVC024 00/M03 A3005 RMK AO2
KAXV 110615Z AUTO 31005KT 10SM OVC024 00/M03 A3005 RMK AO2
KAXV 110555Z AUTO 31008KT 10SM OVC024 00/M03 A3004 RMK AO2
KAXV 110535Z AUTO 31011G14KT 10SM OVC022 00/M03 A3004 RMK AO2
KAXV 110515Z AUTO 31006KT 10SM OVC024 00/M03 A3004 RMK AO2
KAXV 110455Z AUTO 31007KT 10SM OVC024 00/M02 A3002 RMK AO2
KAXV 110435Z AUTO 31010G15KT 10SM OVC028 00/M02 A3002 RMK AO2
KAXV 110415Z AUTO 30008KT 10SM OVC030 00/M02 A3001 RMK AO2
KAXV 110355Z AUTO 31009KT 10SM OVC032 00/M03 A3001 RMK AO2
KAXV 110335Z AUTO 32008KT 10SM OVC034 00/M02 A3000 RMK AO2
KAXV 110315Z AUTO 30005KT 10SM OVC034 00/M02 A3000 RMK AO2
KAXV 110255Z AUTO 27007KT 10SM OVC036 00/M02 A2999 RMK AO2
KAXV 110235Z AUTO 25008KT 10SM OVC038 00/M02 A2998 RMK AO2
KAXV 110215Z AUTO 24009KT 10SM OVC038 00/M03 A2998 RMK AO2
KAXV 110155Z AUTO 24008KT 10SM OVC040 00/M03 A2998 RMK AO2
KAXV 110135Z AUTO 22008KT 10SM OVC040 00/M03 A2998 RMK AO2
KAXV 110115Z AUTO 21009KT 10SM OVC040 00/M03 A2997 RMK AO2
KAXV 110055Z AUTO 21009KT 10SM OVC040 00/M03 A2997 RMK AO2
KAXV 110035Z AUTO 19009KT 10SM OVC040 00/M04 A2997 RMK AO2
KAXV 110015Z AUTO 20007KT 10SM OVC040 00/M03 A2997 RMK AO2
KAXV 102355Z AUTO 20007KT 10SM OVC040 00/M04 A2997 RMK AO2
KAXV 102335Z AUTO 20009KT 10SM OVC042 00/M04 A2997 RMK AO2
KAXV 102315Z AUTO 21008KT 10SM OVC042 00/M04 A2998 RMK AO2
KAXV 102255Z AUTO 21007KT 10SM OVC042 00/M05 A2998 RMK AO2
KAXV 102235Z AUTO 21008KT 10SM OVC042 00/M05 A2997 RMK AO2
KAXV 102215Z AUTO 21007KT 10SM OVC042 00/M05 A2996 RMK AO2
KAXV 102155Z AUTO 22008KT 10SM BKN042 00/M05 A2995 RMK AO2
KAXV 102135Z AUTO 22008KT 10SM CLR 00/M05 A2995 RMK AO2
KAXV 102115Z AUTO 22011KT 10SM CLR 00/M05 A2994 RMK AO2
KAXV 102055Z AUTO 22011KT 10SM CLR 00/M05 A2993 RMK AO2
KAXV 102035Z AUTO 22013KT 10SM CLR 00/M05 A2993 RMK AO2
KAXV 102015Z AUTO 20013G17KT 10SM CLR 00/M05 A2991 RMK AO2
KAXV 101955Z AUTO 21015G19KT 10SM CLR 00/M05 A2991 RMK AO2
KAXV 101935Z AUTO 22013KT 10SM CLR 00/M05 A2992 RMK AO2
KAXV 101915Z AUTO 22013KT 10SM CLR 00/M05 A2992 RMK AO2
KAXV 101855Z AUTO 20017G21KT 10SM SCT120 00/M05 A2993 RMK AO2
KAXV 101835Z AUTO 22017G22KT 10SM SCT090 SCT120 00/M05 A2994 RMK AO2
KAXV 101815Z AUTO 21014KT 10SM BKN090 00/M05 A2995 RMK AO2
KAXV 101755Z AUTO 21017KT 10SM OVC090 M01/M05 A2995 RMK AO2
KAXV 101735Z AUTO 21015G22KT 10SM BKN090 M01/M05 A2997 RMK AO2
KAXV 101715Z AUTO 21015KT 10SM SCT075 BKN090 M02/M05 A2998 RMK AO2
KAXV 101655Z AUTO 20014G19KT 10SM BKN090 M02/M06 A3000 RMK AO2
KAXV 101635Z AUTO 20012KT 10SM SCT070 OVC100 M02/M06 A3002 RMK AO2
KAXV 101615Z AUTO 21013G18KT 10SM OVC060 M03/M06 A3003 RMK AO2
KAXV 101555Z AUTO 21011G15KT 10SM BKN060 OVC090 M03/M06 A3004 RMK AO2
KAXV 101535Z AUTO 21011G15KT 10SM SCT065 SCT080 BKN090 M03/M06 A3004 RMK AO2
KAXV 101515Z AUTO 21011G17KT 10SM SCT100 M04/M06 A3005 RMK AO2
KAXV 101455Z AUTO 21011KT 10SM SCT055 SCT080 M04/M06 A3005 RMK AO2
KAXV 101435Z AUTO 21012G17KT 10SM SCT065 SCT080 M05/M06 A3005 RMK AO2
KAXV 101415Z AUTO 21013G18KT 10SM CLR M05/M07 A3005 RMK AO2
KAXV 101355Z AUTO 22010KT 10SM BKN100 M05/M07 A3005 RMK AO2
KAXV 101335Z AUTO 21010KT 10SM BKN100 M05/M07 A3005 RMK AO2
KAXV 101315Z AUTO 22010G15KT 10SM SCT100 M06/M07 A3005 RMK AO2
KAXV 101256Z AUTO 22009KT 10SM CLR M06/M07 A3004 RMK AO2
KAXV 101235Z AUTO 22010KT 10SM CLR M06/M07 A3005 RMK AO2
KAXV 101215Z AUTO 22010KT 10SM CLR M06/M07 A3005 RMK AO2
KAXV 101155Z AUTO 23012KT 10SM CLR M06/M07 A3005 RMK AO2
KAXV 101135Z AUTO 23011KT 10SM CLR M06/M07 A3005 RMK AO2
KAXV 101115Z AUTO 24009KT 10SM SCT032 M05/M07 A3005 RMK AO2
KAXV 101055Z AUTO 24012G15KT 10SM SCT026 OVC032 M04/M06 A3004 RMK AO2
KAXV 101035Z AUTO 25009KT 10SM SCT024 OVC032 M04/M05 A3004 RMK AO2
KAXV 101015Z AUTO 24009KT 10SM OVC032 M03/M05 A3003 RMK AO2
KAXV 100955Z AUTO 25010KT 10SM BKN032 M04/M05 A3003 RMK AO2
KAXV 100935Z AUTO 24007KT 10SM SCT034 M05/M06 A3002 RMK AO2
KAXV 100915Z AUTO 24010KT 10SM BKN034 M04/M05 A3002 RMK AO2
KAXV 100855Z AUTO 25006KT 10SM SCT022 OVC038 M03/M05 A3003 RMK AO2
KAXV 100835Z AUTO 26010KT 10SM OVC022 M03/M04 A3002 RMK AO2
KAXV 100815Z AUTO 26011KT 10SM SCT016 OVC024 M02/M03 A3002 RMK AO2
KAXV 100755Z AUTO 26008G17KT 10SM BKN016 OVC026 M02/M03 A3002 RMK AO2
KAXV 100735Z AUTO 26010KT 10SM SCT010 OVC017 M02/M02 A3002 RMK AO2
KAXV 100715Z AUTO 25008KT 10SM BKN010 BKN021 OVC031 M02/M02 A3002 RMK AO2
KAXV 100655Z AUTO 25008KT 10SM OVC031 M02/M02 A3001 RMK AO2
KAXV 100635Z AUTO 25007KT 10SM OVC031 M02/M03 A3001 RMK AO2
KAXV 100615Z AUTO 26004KT 10SM OVC031 M02/M03 A3000 RMK AO2
KAXV 100555Z AUTO 27005KT 10SM OVC033 M02/M04 A3000 RMK AO2
KAXV 100535Z AUTO 27004KT 10SM BKN025 OVC033 M02/M03 A3000 RMK AO2
KAXV 100515Z AUTO 28005KT 10SM OVC025 M01/M03 A3000 RMK AO2
KAXV 100456Z AUTO 29005KT 10SM OVC029 M01/M03 A2999 RMK AO2
KAXV 100435Z AUTO 30005KT 10SM BKN020 OVC025 M01/M03 A2998 RMK AO2
KAXV 100415Z AUTO 32009KT 10SM OVC018 M01/M03 A2998 RMK AO2
KAXV 100355Z AUTO 32009KT 10SM OVC022 M01/M02 A2997 RMK AO2
KAXV 100335Z AUTO 30007KT 10SM OVC024 M01/M02 A2996 RMK AO2
KAXV 100315Z AUTO 31006KT 10SM OVC024 M01/M01 A2995 RMK AO2
KAXV 100255Z AUTO 30007KT 10SM OVC026 M01/M01 A2995 RMK AO2
KAXV 100235Z AUTO 29006KT 7SM SCT014 SCT020 OVC029 M01/M01 A2993 RMK AO2
KAXV 100215Z AUTO 30006KT 10SM OVC029 M02/M02 A2992 RMK AO2
KAXV 100155Z AUTO 31005KT 10SM SCT009 OVC031 M02/M02 A2991 RMK AO2
KAXV 100135Z AUTO 31007KT 10SM SCT009 BKN033 OVC044 M02/M02 A2990 RMK AO2
KAXV 100115Z AUTO 32007KT 7SM SCT009 BKN044 OVC050 M02/M02 A2988 RMK AO2
KAXV 100055Z AUTO 33011G16KT 7SM BKN009 BKN013 BKN050 M01/M01 A2988 RMK AO2
KAXV 100035Z AUTO 34011G15KT 5SM -SN OVC007 M01/M01 A2986 RMK AO2
KAXV 100015Z AUTO 31006KT 5SM -SN OVC007 M01/M01 A2985 RMK AO2
KAXV 092355Z AUTO 29005KT 5SM -SN OVC007 M01/M01 A2983 RMK AO2
KAXV 092335Z AUTO 27008KT 3SM -SN OVC009 M01/M01 A2982 RMK AO2
KAXV 092315Z AUTO 25008KT 2SM -SN OVC009 M01/M01 A2981 RMK AO2
KAXV 092255Z AUTO 25013KT 4SM -SN OVC009 M01/M01 A2980 RMK AO2
KAXV 092235Z AUTO 25008KT 7SM -SN OVC009 M01/M01 A2979 RMK AO2
KAXV 092215Z AUTO 23009KT 7SM -SN OVC011 M01/M01 A2978 RMK AO2
KAXV 092155Z AUTO 23010KT 2 1/2SM -SN OVC013 M01/M01 A2977 RMK AO2
KAXV 092135Z AUTO 23008KT 7SM -SN OVC015 M01/M01 A2976 RMK AO2